createdAt,value
2023-07-20T00:00:55.045Z,12.60
2023-07-20T00:06:09.371Z,12.55
2023-07-20T00:11:14.981Z,12.50
2023-07-20T00:16:18.255Z,12.50
2023-07-20T00:21:21.480Z,12.53
2023-07-20T00:26:24.620Z,12.58
2023-07-20T00:31:28.410Z,12.64
2023-07-20T00:36:31.827Z,12.63
2023-07-20T00:41:35.231Z,12.58
2023-07-20T00:46:38.662Z,12.56
2023-07-20T00:51:43.079Z,12.52
2023-07-20T00:56:47.320Z,12.50
2023-07-20T01:01:50.753Z,12.48
2023-07-20T01:07:17.589Z,12.47
2023-07-20T01:12:29.911Z,12.45
2023-07-20T01:17:33.426Z,12.45
2023-07-20T01:23:11.124Z,12.45
2023-07-20T01:28:33.212Z,12.43
2023-07-20T01:33:37.836Z,12.39
2023-07-20T01:38:41.869Z,12.36
2023-07-20T01:43:45.685Z,12.34
2023-07-20T01:48:49.166Z,12.32
2023-07-20T01:53:52.410Z,12.31
2023-07-20T01:58:55.618Z,12.29
2023-07-20T02:03:58.824Z,12.28
2023-07-20T02:09:02.247Z,12.30
2023-07-20T02:14:05.556Z,12.31
2023-07-20T02:19:09.066Z,12.29
2023-07-20T02:24:14.156Z,12.28
2023-07-20T02:29:17.336Z,12.23
2023-07-20T02:34:20.333Z,12.18
2023-07-20T02:39:23.644Z,12.13
2023-07-20T02:44:26.649Z,12.07
2023-07-20T02:49:30.063Z,12.03
2023-07-20T02:54:33.273Z,11.99
2023-07-20T02:59:36.271Z,12.00
2023-07-20T03:04:39.700Z,12.06
2023-07-20T03:09:43.197Z,12.17
2023-07-20T03:14:46.304Z,12.27
2023-07-20T03:19:49.716Z,12.36
2023-07-20T03:24:53.753Z,12.41
2023-07-20T03:29:57.159Z,12.46
2023-07-20T03:35:00.466Z,12.54
2023-07-20T03:40:04.499Z,12.67
2023-07-20T03:45:08.916Z,12.87
2023-07-20T03:50:12.355Z,13.09
2023-07-20T03:55:15.630Z,13.27
2023-07-20T04:00:19.785Z,13.37
2023-07-20T04:05:23.110Z,13.48
2023-07-20T04:10:26.613Z,13.63
2023-07-20T04:15:29.784Z,13.79
2023-07-20T04:20:33.143Z,13.93
2023-07-20T04:25:40.904Z,14.12
2023-07-20T04:30:44.533Z,14.40
2023-07-20T04:35:53.324Z,14.64
2023-07-20T04:40:57.229Z,14.84
2023-07-20T04:46:00.975Z,15.00
2023-07-20T04:51:04.669Z,15.10
2023-07-20T04:56:07.881Z,15.19
2023-07-20T05:01:11.188Z,15.27
2023-07-20T05:06:14.601Z,15.33
2023-07-20T05:11:18.218Z,15.37
2023-07-20T05:16:21.841Z,15.49
2023-07-20T05:21:25.561Z,15.71
2023-07-20T05:26:28.766Z,16.21
2023-07-20T05:31:33.129Z,16.95
2023-07-20T05:36:36.641Z,17.91
2023-07-20T05:41:39.932Z,18.37
2023-07-20T05:46:56.227Z,18.68
2023-07-20T05:52:02.536Z,18.92
2023-07-20T05:57:06.352Z,19.19
2023-07-20T06:02:09.966Z,20.27
2023-07-20T06:07:13.381Z,21.62
2023-07-20T06:12:16.894Z,22.71
2023-07-20T06:17:20.255Z,23.47
2023-07-20T06:22:23.727Z,23.54
2023-07-20T06:27:27.024Z,23.34
2023-07-20T06:32:30.544Z,23.42
2023-07-20T06:37:34.466Z,23.87
2023-07-20T06:47:44.910Z,23.80
2023-07-20T06:52:49.551Z,24.66
2023-07-20T06:57:58.869Z,26.27
2023-07-20T07:03:02.751Z,27.00
2023-07-20T07:08:06.865Z,26.92
2023-07-20T07:13:10.245Z,27.66
2023-07-20T07:18:13.503Z,28.70
2023-07-20T07:23:16.909Z,29.33
2023-07-20T07:28:20.373Z,30.24
2023-07-20T07:33:23.584Z,31.39
2023-07-20T07:43:36.358Z,35.08
2023-07-20T07:48:39.967Z,37.30
2023-07-20T07:53:43.799Z,38.75
2023-07-20T07:58:47.113Z,40.09
2023-07-20T08:03:50.785Z,40.58
2023-07-20T08:08:54.055Z,40.96
2023-07-20T08:13:57.958Z,41.37
2023-07-20T08:19:01.323Z,41.20
2023-07-20T08:24:05.520Z,39.21
2023-07-20T08:29:08.812Z,37.30
2023-07-20T08:34:24.409Z,36.43
2023-07-20T08:39:33.655Z,34.41
2023-07-20T08:44:40.009Z,34.69
2023-07-20T08:49:44.145Z,35.53
2023-07-20T08:54:47.916Z,36.75
2023-07-20T08:59:54.111Z,37.20
2023-07-20T09:04:57.776Z,37.71
2023-07-20T09:10:01.305Z,38.40
2023-07-20T09:15:07.816Z,38.65
2023-07-20T09:20:12.368Z,38.52
2023-07-20T09:25:17.896Z,38.13
2023-07-20T09:30:31.611Z,36.82
2023-07-20T09:35:43.157Z,34.59
2023-07-20T09:46:00.000Z,30.87
2023-07-20T09:51:03.628Z,29.86
2023-07-20T09:56:08.432Z,30.30
2023-07-20T10:01:15.759Z,30.18
2023-07-20T10:06:25.124Z,30.16
2023-07-20T10:11:32.024Z,29.85
2023-07-20T10:16:49.990Z,29.66
2023-07-20T10:22:04.602Z,29.16
2023-07-20T10:27:08.889Z,28.41
2023-07-20T10:32:12.755Z,28.37
2023-07-20T10:37:50.744Z,28.37
2023-07-20T10:43:11.263Z,28.40
2023-07-20T10:48:20.846Z,28.24
2023-07-20T10:53:24.120Z,27.97
2023-07-20T10:58:30.195Z,27.45
2023-07-20T11:03:38.314Z,26.97
2023-07-20T11:08:43.321Z,26.81
2023-07-20T11:13:58.882Z,26.80
2023-07-20T11:19:03.298Z,26.81
2023-07-20T11:24:07.861Z,27.02
2023-07-20T11:29:20.995Z,26.93
2023-07-20T11:34:31.363Z,26.87
2023-07-20T11:39:34.572Z,26.91
2023-07-20T11:44:38.103Z,26.78
2023-07-20T11:49:43.754Z,26.71
2023-07-20T11:54:49.994Z,27.00
2023-07-20T12:00:05.962Z,27.36
2023-07-20T12:05:10.067Z,27.36
2023-07-20T12:10:13.870Z,27.19
2023-07-20T12:15:31.670Z,27.15
2023-07-20T12:20:41.020Z,27.22
2023-07-20T12:25:47.074Z,26.95
2023-07-20T12:30:57.873Z,26.62
2023-07-20T12:36:02.938Z,26.45
2023-07-20T12:41:06.353Z,26.10
2023-07-20T12:46:11.402Z,25.29
2023-07-20T12:51:14.889Z,24.00
2023-07-20T13:01:26.698Z,20.99
2023-07-20T13:06:30.668Z,19.72
2023-07-20T13:11:33.723Z,18.69
2023-07-20T13:16:37.339Z,17.90
2023-07-20T13:21:40.903Z,17.34
2023-07-20T13:26:44.407Z,17.00
2023-07-20T13:31:48.725Z,16.88
2023-07-20T13:36:53.516Z,16.87
2023-07-20T13:41:57.981Z,16.90
2023-07-20T13:57:17.236Z,17.04
2023-07-20T14:07:27.066Z,16.76
2023-07-20T14:12:30.448Z,16.78
2023-07-20T14:17:33.758Z,17.03
2023-07-20T14:22:38.203Z,17.57
2023-07-20T14:27:42.361Z,18.31
2023-07-20T14:32:50.795Z,19.05
2023-07-20T14:37:54.745Z,19.56
2023-07-20T14:42:58.673Z,19.77
2023-07-20T14:48:01.976Z,19.80
2023-07-20T14:53:06.998Z,19.72
2023-07-20T14:58:10.731Z,19.62
2023-07-20T15:03:14.192Z,19.59
2023-07-20T15:08:17.580Z,19.51
2023-07-20T15:13:20.969Z,19.43
2023-07-20T15:18:37.640Z,19.36
2023-07-20T15:23:47.558Z,19.33
2023-07-20T15:28:51.083Z,19.55
2023-07-20T15:33:54.723Z,19.88
2023-07-20T15:38:58.796Z,20.02
2023-07-20T15:44:04.202Z,19.98
2023-07-20T15:49:08.761Z,19.88
2023-07-20T15:54:12.748Z,19.78
2023-07-20T15:59:17.385Z,19.71
2023-07-20T16:04:21.320Z,19.64
2023-07-20T16:09:24.951Z,19.59
2023-07-20T16:14:28.473Z,19.57
2023-07-20T16:19:32.273Z,19.43
2023-07-20T16:24:36.158Z,19.31
2023-07-20T16:29:42.291Z,19.37
2023-07-20T16:34:49.467Z,19.42
2023-07-20T16:39:54.040Z,19.44
2023-07-20T16:44:57.637Z,19.40
2023-07-20T16:50:01.414Z,19.32
2023-07-20T16:55:06.320Z,19.26
2023-07-20T17:00:15.194Z,19.19
2023-07-20T17:05:20.024Z,19.12
2023-07-20T17:10:24.321Z,19.05
2023-07-20T17:15:27.635Z,18.96
2023-07-20T17:30:41.804Z,18.58
2023-07-20T17:35:45.222Z,18.29
2023-07-20T17:40:48.499Z,18.02
2023-07-20T17:45:52.251Z,17.85
2023-07-20T17:50:56.473Z,17.70
2023-07-20T17:56:00.732Z,17.56
2023-07-20T18:01:04.469Z,17.47
2023-07-20T18:06:08.754Z,17.43
2023-07-20T18:11:12.047Z,17.36
2023-07-20T18:16:15.692Z,17.28
2023-07-20T18:21:19.579Z,17.18
2023-07-20T18:26:23.307Z,17.06
2023-07-20T18:31:27.258Z,16.91
2023-07-20T18:36:31.481Z,16.72
2023-07-20T18:41:35.179Z,16.50
2023-07-20T18:46:39.317Z,16.29
2023-07-20T18:51:43.295Z,16.10
2023-07-20T18:56:47.241Z,15.90
2023-07-20T19:01:50.752Z,15.68
2023-07-20T19:06:55.846Z,15.47
2023-07-20T19:11:59.242Z,15.30
2023-07-20T19:17:03.085Z,15.13
2023-07-20T19:22:06.889Z,14.95
2023-07-20T19:27:10.423Z,14.78
2023-07-20T19:32:14.745Z,14.61
2023-07-20T19:37:18.050Z,14.45
2023-07-20T19:42:24.880Z,14.30
2023-07-20T19:47:29.217Z,14.16
2023-07-20T19:52:33.394Z,14.04
2023-07-20T19:57:40.573Z,13.92
2023-07-20T20:07:51.634Z,13.70
2023-07-20T20:12:54.955Z,13.60
2023-07-20T20:18:00.963Z,13.52
2023-07-20T20:23:17.764Z,13.46
2023-07-20T20:28:21.484Z,13.37
2023-07-20T20:33:26.278Z,13.30
2023-07-20T20:38:30.545Z,13.25
2023-07-20T20:43:33.758Z,13.21
2023-07-20T20:48:38.963Z,13.21
2023-07-20T20:53:43.351Z,13.24
2023-07-20T20:58:47.680Z,13.31
2023-07-20T21:03:51.310Z,13.42
2023-07-20T21:08:55.429Z,13.54
2023-07-20T21:13:59.770Z,13.64
2023-07-20T21:19:04.017Z,13.72
2023-07-20T21:24:07.317Z,13.78
2023-07-20T21:29:10.510Z,13.77
2023-07-20T21:34:13.728Z,13.72
2023-07-20T21:39:17.054Z,13.61
2023-07-20T21:44:20.447Z,13.47
2023-07-20T21:49:23.549Z,13.32
2023-07-20T21:54:26.758Z,13.20
2023-07-20T21:59:30.072Z,13.10
2023-07-20T22:04:33.731Z,12.99
2023-07-20T22:09:38.020Z,12.85
2023-07-20T22:14:43.144Z,12.72
2023-07-20T22:19:46.396Z,12.60
2023-07-20T22:24:49.629Z,12.50
2023-07-20T22:29:53.220Z,12.41
2023-07-20T22:34:58.104Z,12.32
2023-07-20T22:40:01.319Z,12.23
2023-07-20T22:45:07.889Z,12.16
2023-07-20T22:50:12.198Z,12.08
2023-07-20T22:55:15.605Z,12.02
2023-07-20T23:00:25.573Z,11.95
2023-07-20T23:05:29.193Z,11.90
2023-07-20T23:10:32.709Z,11.86
2023-07-20T23:15:37.040Z,11.83
2023-07-20T23:20:40.366Z,11.77
2023-07-20T23:25:44.069Z,11.72
2023-07-20T23:30:51.171Z,11.70
2023-07-20T23:35:54.479Z,11.68
2023-07-20T23:40:57.888Z,11.65
2023-07-20T23:46:04.000Z,11.61
2023-07-20T23:51:11.068Z,11.57
2023-07-20T23:56:17.980Z,11.53
